createdAt,value
2022-10-04T00:00:41.332Z,3.47
2022-10-04T00:03:21.922Z,4.85
2022-10-04T00:05:58.460Z,3.78
2022-10-04T00:08:43.423Z,2.88
2022-10-04T00:11:23.669Z,6.80
2022-10-04T00:14:00.161Z,4.00
2022-10-04T00:16:35.557Z,4.38
2022-10-04T00:19:40.214Z,4.57
2022-10-04T00:22:17.377Z,4.15
2022-10-04T00:25:21.276Z,2.45
2022-10-04T00:28:18.235Z,3.60
2022-10-04T00:31:16.859Z,3.65
2022-10-04T00:33:52.055Z,6.35
2022-10-04T00:36:48.101Z,4.25
2022-10-04T00:39:40.558Z,3.55
2022-10-04T00:42:32.779Z,4.13
2022-10-04T00:45:14.242Z,5.18
2022-10-04T00:48:12.614Z,5.80
2022-10-04T00:50:51.329Z,3.35
2022-10-04T00:53:41.048Z,7.47
2022-10-04T00:56:19.308Z,4.10
2022-10-04T00:59:26.140Z,4.18
2022-10-04T01:02:05.018Z,6.10
2022-10-04T01:04:46.960Z,3.95
2022-10-04T01:09:58.682Z,8.95
2022-10-04T01:12:42.054Z,8.05
2022-10-04T01:15:24.543Z,6.47
2022-10-04T01:18:14.779Z,6.68
2022-10-04T01:20:54.640Z,11.35
2022-10-04T01:23:42.828Z,8.70
2022-10-04T01:26:41.540Z,7.75
2022-10-04T01:29:17.603Z,10.95
2022-10-04T01:31:52.047Z,11.45
2022-10-04T01:34:26.764Z,10.88
2022-10-04T01:37:01.360Z,9.73
2022-10-04T01:39:35.606Z,12.75
2022-10-04T01:42:12.012Z,10.68
2022-10-04T01:44:51.604Z,14.50
2022-10-04T01:47:31.385Z,35.47
2022-10-04T01:50:13.614Z,53.58
2022-10-04T01:52:53.094Z,41.72
2022-10-04T01:55:30.834Z,19.50
2022-10-04T01:58:11.039Z,25.25
2022-10-04T02:00:49.181Z,31.17
2022-10-04T02:03:28.942Z,12.07
2022-10-04T02:06:06.284Z,32.33
2022-10-04T02:08:41.968Z,23.75
2022-10-04T02:11:21.937Z,13.88
2022-10-04T02:13:56.446Z,14.77
2022-10-04T02:16:29.839Z,13.85
2022-10-04T02:19:05.123Z,3.83
2022-10-04T02:21:38.689Z,10.35
2022-10-04T02:24:12.628Z,6.07
2022-10-04T02:26:51.790Z,5.25
2022-10-04T02:29:24.667Z,8.85
2022-10-04T02:32:15.607Z,8.25
2022-10-04T02:34:49.375Z,11.75
2022-10-04T02:37:24.044Z,20.05
2022-10-04T02:40:04.347Z,8.60
2022-10-04T02:42:45.596Z,3.80
2022-10-04T02:45:23.270Z,12.45
2022-10-04T02:48:01.369Z,13.63
2022-10-04T02:50:37.551Z,6.18
2022-10-04T02:53:15.649Z,5.93
2022-10-04T02:55:49.525Z,4.28
2022-10-04T02:58:25.984Z,7.15
2022-10-04T03:01:01.044Z,7.22
2022-10-04T03:03:37.020Z,5.05
2022-10-04T03:06:14.152Z,10.38
2022-10-04T03:08:51.477Z,3.20
2022-10-04T03:11:28.813Z,3.30
2022-10-04T03:14:06.164Z,3.35
2022-10-04T03:16:41.884Z,8.52
2022-10-04T03:19:18.165Z,6.53
2022-10-04T03:21:54.329Z,4.20
2022-10-04T03:24:32.088Z,11.65
2022-10-04T03:27:07.980Z,4.55
2022-10-04T03:29:44.324Z,17.02
2022-10-04T03:32:19.586Z,15.43
2022-10-04T03:34:57.123Z,12.27
2022-10-04T03:37:33.392Z,10.40
2022-10-04T03:40:10.827Z,4.90
2022-10-04T03:42:46.055Z,4.72
2022-10-04T03:45:22.483Z,4.13
2022-10-04T03:48:00.322Z,6.47
2022-10-04T03:50:36.592Z,6.75
2022-10-04T03:53:13.865Z,10.70
2022-10-04T03:55:47.212Z,8.32
2022-10-04T03:58:21.892Z,13.07
2022-10-04T04:01:10.916Z,7.03
2022-10-04T04:03:55.329Z,8.10
2022-10-04T04:06:36.150Z,6.93
2022-10-04T04:09:10.611Z,5.40
2022-10-04T04:11:45.802Z,6.35
2022-10-04T04:14:25.909Z,5.13
2022-10-04T04:17:32.026Z,5.05
2022-10-04T04:20:14.606Z,8.75
2022-10-04T04:22:58.312Z,7.97
2022-10-04T04:25:35.988Z,36.83
2022-10-04T04:28:22.040Z,6.75
2022-10-04T04:30:59.637Z,4.53
2022-10-04T04:33:46.768Z,4.07
2022-10-04T04:36:19.657Z,4.70
2022-10-04T04:39:09.791Z,4.40
2022-10-04T04:41:45.834Z,3.97
2022-10-04T04:44:22.504Z,3.83
2022-10-04T04:47:00.733Z,3.97
2022-10-04T04:49:39.520Z,5.03
2022-10-04T04:52:18.310Z,3.63
2022-10-04T04:54:51.213Z,5.22
2022-10-04T04:57:24.427Z,4.57
2022-10-04T05:00:01.273Z,7.68
2022-10-04T05:02:36.791Z,5.35
2022-10-04T05:05:23.218Z,5.57
2022-10-04T05:08:14.478Z,5.35
2022-10-04T05:10:52.385Z,6.20
2022-10-04T05:13:32.839Z,6.63
2022-10-04T05:16:06.408Z,5.00
2022-10-04T05:18:39.402Z,6.95
2022-10-04T05:21:21.340Z,7.80
2022-10-04T05:26:32.046Z,7.85
2022-10-04T05:29:11.886Z,7.10
2022-10-04T05:31:50.890Z,7.05
2022-10-04T05:34:27.206Z,7.60
2022-10-04T05:37:30.195Z,9.52
2022-10-04T05:40:17.972Z,8.65
2022-10-04T05:42:54.400Z,7.13
2022-10-04T05:45:29.776Z,9.77
2022-10-04T05:48:08.184Z,10.52
2022-10-04T05:50:43.425Z,11.25
2022-10-04T05:53:27.733Z,7.22
2022-10-04T05:56:17.424Z,8.27
2022-10-04T05:59:05.399Z,13.93
2022-10-04T06:01:48.420Z,11.95
2022-10-04T06:04:35.357Z,11.45
2022-10-04T06:07:20.258Z,4.78
2022-10-04T06:10:06.798Z,9.55
2022-10-04T06:12:53.729Z,5.47
2022-10-04T06:15:51.621Z,3.22
2022-10-04T06:18:44.124Z,2.67
2022-10-04T06:21:22.610Z,3.15
2022-10-04T06:24:03.206Z,7.32
2022-10-04T06:26:41.353Z,5.22
2022-10-04T06:29:21.554Z,3.67
2022-10-04T06:32:21.423Z,3.55
2022-10-04T06:35:09.496Z,3.25
2022-10-04T06:38:15.482Z,3.30
2022-10-04T06:41:16.834Z,3.55
2022-10-04T06:44:05.436Z,3.90
2022-10-04T06:46:48.986Z,3.15
2022-10-04T06:49:43.991Z,2.58
2022-10-04T06:53:01.436Z,3.40
2022-10-04T06:56:05.733Z,3.40
2022-10-04T06:58:55.529Z,3.15
2022-10-04T07:01:30.955Z,3.60
2022-10-04T07:04:23.870Z,3.20
2022-10-04T07:07:34.963Z,3.13
2022-10-04T07:10:25.365Z,2.60
2022-10-04T07:13:10.661Z,2.95
2022-10-04T07:15:50.125Z,4.00
2022-10-04T07:18:28.714Z,2.38
2022-10-04T07:21:08.465Z,2.95
2022-10-04T07:23:47.714Z,2.50
2022-10-04T07:26:30.487Z,2.60
2022-10-04T07:29:22.419Z,3.08
2022-10-04T07:34:45.496Z,2.65
2022-10-04T07:37:21.148Z,2.53
2022-10-04T07:40:01.089Z,3.22
2022-10-04T07:42:46.760Z,3.08
2022-10-04T07:45:25.820Z,3.63
2022-10-04T07:48:06.461Z,3.13
2022-10-04T07:50:45.979Z,3.30
2022-10-04T07:53:25.746Z,3.63
2022-10-04T07:56:03.597Z,3.83
2022-10-04T07:58:47.665Z,3.40
2022-10-04T08:01:31.553Z,5.22
2022-10-04T08:04:17.267Z,3.28
2022-10-04T08:06:59.926Z,3.88
2022-10-04T08:09:50.774Z,4.13
2022-10-04T08:12:29.098Z,4.38
2022-10-04T08:15:26.567Z,3.95
2022-10-04T08:18:06.978Z,3.92
2022-10-04T08:20:48.039Z,4.95
2022-10-04T08:23:50.277Z,4.43
2022-10-04T08:26:49.213Z,8.20
2022-10-04T08:29:42.981Z,6.15
2022-10-04T08:32:28.357Z,6.20
2022-10-04T08:35:23.410Z,6.18
2022-10-04T08:38:14.692Z,6.78
2022-10-04T08:41:19.148Z,5.82
2022-10-04T08:44:24.562Z,6.15
2022-10-04T08:47:30.837Z,6.07
2022-10-04T08:50:46.585Z,6.13
2022-10-04T08:53:53.808Z,6.88
2022-10-04T08:56:48.388Z,8.27
2022-10-04T08:59:51.785Z,6.40
2022-10-04T09:03:09.382Z,8.35
2022-10-04T09:05:55.250Z,5.50
2022-10-04T09:09:07.205Z,6.07
2022-10-04T09:12:01.405Z,7.78
2022-10-04T09:15:02.116Z,6.15
2022-10-04T09:17:44.967Z,9.98
2022-10-04T09:20:38.324Z,7.75
2022-10-04T09:23:40.261Z,9.55
2022-10-04T09:26:22.113Z,5.75
2022-10-04T09:29:15.598Z,7.38
2022-10-04T09:32:22.597Z,6.32
2022-10-04T09:35:14.985Z,6.68
2022-10-04T09:38:38.988Z,5.53
2022-10-04T09:41:38.094Z,6.93
2022-10-04T09:44:40.353Z,5.70
2022-10-04T09:47:38.056Z,5.65
2022-10-04T09:50:37.400Z,8.38
2022-10-04T09:53:35.489Z,6.40
2022-10-04T09:56:31.460Z,6.15
2022-10-04T09:59:27.245Z,6.00
2022-10-04T10:02:31.846Z,6.72
2022-10-04T10:05:24.151Z,6.60
2022-10-04T10:08:09.270Z,7.30
2022-10-04T10:11:09.756Z,7.13
2022-10-04T10:14:15.987Z,6.35
2022-10-04T10:17:03.539Z,8.85
2022-10-04T10:20:16.745Z,6.72
2022-10-04T10:23:26.780Z,7.35
2022-10-04T10:26:30.303Z,6.82
2022-10-04T10:29:24.005Z,6.18
2022-10-04T10:32:12.368Z,7.38
2022-10-04T10:35:20.779Z,7.50
2022-10-04T10:38:07.972Z,9.02
2022-10-04T10:40:53.172Z,6.72
2022-10-04T10:43:42.209Z,7.40
2022-10-04T10:46:29.043Z,6.32
2022-10-04T10:49:27.388Z,6.47
2022-10-04T10:52:48.916Z,7.00
2022-10-04T10:55:33.234Z,6.35
2022-10-04T10:58:27.370Z,5.70
2022-10-04T11:01:16.770Z,6.82
2022-10-04T11:04:34.895Z,7.05
2022-10-04T11:07:43.338Z,6.32
2022-10-04T11:11:05.393Z,7.10
2022-10-04T11:14:13.886Z,7.07
2022-10-04T11:17:20.890Z,6.72
2022-10-04T11:20:30.012Z,6.57
2022-10-04T11:23:33.501Z,7.20
2022-10-04T11:26:39.115Z,6.00
2022-10-04T11:29:24.345Z,6.72
2022-10-04T11:32:32.789Z,6.78
2022-10-04T11:35:59.371Z,5.80
2022-10-04T11:38:49.137Z,6.43
2022-10-04T11:41:36.748Z,7.00
2022-10-04T11:44:53.248Z,7.03
2022-10-04T11:47:43.218Z,7.20
2022-10-04T11:50:30.207Z,5.68
2022-10-04T11:53:34.416Z,5.65
2022-10-04T11:56:21.603Z,6.65
2022-10-04T11:59:27.607Z,6.28
2022-10-04T12:02:26.932Z,4.88
2022-10-04T12:05:24.607Z,6.15
2022-10-04T12:08:10.387Z,5.90
2022-10-04T12:10:46.608Z,6.70
2022-10-04T12:13:45.759Z,6.60
2022-10-04T12:16:48.358Z,6.85
2022-10-04T12:19:52.650Z,8.10
2022-10-04T12:22:49.207Z,8.68
2022-10-04T12:25:58.389Z,5.88
2022-10-04T12:29:05.917Z,6.68
2022-10-04T12:31:45.423Z,6.00
2022-10-04T12:34:27.953Z,6.85
2022-10-04T12:37:16.527Z,7.13
2022-10-04T12:40:08.691Z,5.65
2022-10-04T12:42:49.193Z,6.68
2022-10-04T12:45:39.306Z,6.38
2022-10-04T12:48:34.307Z,6.53
2022-10-04T12:51:21.536Z,4.82
2022-10-04T12:54:05.278Z,6.10
2022-10-04T12:56:48.266Z,5.28
2022-10-04T12:59:40.228Z,7.85
2022-10-04T13:02:25.207Z,5.80
2022-10-04T13:05:11.709Z,6.22
2022-10-04T13:07:58.411Z,5.07
2022-10-04T13:10:45.708Z,6.28
2022-10-04T13:14:17.500Z,6.28
2022-10-04T13:19:57.258Z,6.45
2022-10-04T13:22:57.039Z,5.32
2022-10-04T13:26:03.760Z,6.13
2022-10-04T13:28:47.853Z,6.18
2022-10-04T13:31:32.934Z,7.45
2022-10-04T13:34:19.864Z,6.28
2022-10-04T13:37:05.033Z,5.00
2022-10-04T13:39:55.822Z,4.57
2022-10-04T13:43:00.261Z,4.85
2022-10-04T13:45:45.543Z,4.57
2022-10-04T13:48:31.051Z,5.07
2022-10-04T13:51:24.427Z,5.93
2022-10-04T13:54:29.322Z,7.75
2022-10-04T13:57:18.376Z,4.55
2022-10-04T13:59:56.410Z,4.60
2022-10-04T14:02:49.852Z,4.80
2022-10-04T14:06:06.601Z,6.28
2022-10-04T14:09:19.718Z,6.35
2022-10-04T14:12:09.206Z,6.22
2022-10-04T14:15:11.268Z,6.13
2022-10-04T14:21:02.276Z,7.78
2022-10-04T14:24:06.067Z,6.70
2022-10-04T14:27:20.529Z,5.95
2022-10-04T14:30:08.224Z,7.95
2022-10-04T14:33:16.573Z,5.28
2022-10-04T14:35:55.980Z,4.78
2022-10-04T14:38:44.426Z,4.68
2022-10-04T14:42:06.996Z,7.78
2022-10-04T14:45:07.621Z,8.48
2022-10-04T14:48:19.021Z,4.93
2022-10-04T14:51:12.886Z,5.60
2022-10-04T14:53:55.983Z,7.18
2022-10-04T14:56:52.310Z,5.32
2022-10-04T14:59:43.004Z,5.60
2022-10-04T15:02:49.919Z,6.10
2022-10-04T15:05:41.238Z,7.55
2022-10-04T15:08:41.890Z,5.10
2022-10-04T15:11:19.163Z,4.47
2022-10-04T15:13:55.728Z,4.95
2022-10-04T15:16:38.500Z,6.13
2022-10-04T15:19:26.376Z,6.97
2022-10-04T15:22:09.093Z,5.90
2022-10-04T15:24:49.052Z,7.57
2022-10-04T15:27:39.344Z,5.45
2022-10-04T15:30:21.794Z,4.90
2022-10-04T15:33:22.700Z,4.90
2022-10-04T15:36:15.721Z,4.60
2022-10-04T15:38:57.274Z,6.25
2022-10-04T15:41:46.623Z,9.55
2022-10-04T15:44:44.105Z,7.47
2022-10-04T15:47:25.498Z,5.63
2022-10-04T15:50:26.126Z,6.75
2022-10-04T15:53:28.789Z,7.88
2022-10-04T15:56:11.891Z,6.80
2022-10-04T15:59:00.597Z,6.90
2022-10-04T16:01:51.083Z,8.02
2022-10-04T16:04:42.882Z,12.85
2022-10-04T16:07:40.347Z,7.50
2022-10-04T16:10:21.910Z,7.90
2022-10-04T16:13:18.641Z,11.70
2022-10-04T16:16:26.721Z,7.90
2022-10-04T16:19:11.030Z,9.15
2022-10-04T16:21:53.613Z,9.02
2022-10-04T16:24:40.941Z,8.30
2022-10-04T16:27:42.326Z,9.48
2022-10-04T16:30:28.699Z,7.50
2022-10-04T16:33:29.077Z,9.13
2022-10-04T16:36:10.081Z,6.97
2022-10-04T16:39:02.394Z,6.82
2022-10-04T16:41:40.711Z,7.32
2022-10-04T16:44:32.056Z,7.82
2022-10-04T16:47:22.368Z,6.22
2022-10-04T16:49:57.340Z,4.78
2022-10-04T16:52:48.155Z,5.25
2022-10-04T16:55:37.988Z,4.95
2022-10-04T16:58:50.237Z,3.90
2022-10-04T17:04:29.669Z,3.97
2022-10-04T17:07:15.078Z,4.03
2022-10-04T17:09:49.839Z,3.83
2022-10-04T17:12:29.312Z,6.00
2022-10-04T17:15:41.321Z,5.07
2022-10-04T17:18:21.254Z,6.65
2022-10-04T17:21:01.447Z,7.80
2022-10-04T17:24:00.240Z,6.97
2022-10-04T17:26:52.867Z,6.50
2022-10-04T17:29:46.605Z,5.22
2022-10-04T17:32:25.871Z,5.15
2022-10-04T17:35:14.541Z,5.97
2022-10-04T17:37:56.725Z,3.95
2022-10-04T17:40:42.892Z,7.32
2022-10-04T17:43:24.268Z,4.88
2022-10-04T17:46:16.869Z,4.97
2022-10-04T17:49:14.057Z,5.47
2022-10-04T17:52:07.385Z,6.20
2022-10-04T17:55:05.217Z,6.85
2022-10-04T17:57:43.894Z,4.80
2022-10-04T18:00:18.723Z,5.68
2022-10-04T18:03:09.018Z,4.50
2022-10-04T18:05:50.624Z,4.57
2022-10-04T18:08:42.672Z,7.65
2022-10-04T18:14:02.511Z,4.10
2022-10-04T18:16:50.147Z,4.90
2022-10-04T18:19:41.208Z,5.93
2022-10-04T18:22:16.434Z,5.40
2022-10-04T18:25:03.647Z,5.85
2022-10-04T18:27:52.426Z,4.95
2022-10-04T18:30:26.667Z,6.57
2022-10-04T18:33:00.028Z,5.85
2022-10-04T18:35:35.326Z,6.28
2022-10-04T18:38:27.365Z,5.65
2022-10-04T18:43:50.902Z,7.22
2022-10-04T18:46:25.479Z,5.63
2022-10-04T18:49:04.806Z,4.75
2022-10-04T18:51:46.540Z,5.95
2022-10-04T18:54:29.141Z,7.07
2022-10-04T18:57:13.039Z,8.07
2022-10-04T19:00:16.610Z,6.05
2022-10-04T19:03:01.767Z,7.85
2022-10-04T19:05:44.808Z,7.28
2022-10-04T19:08:33.592Z,13.73
2022-10-04T19:11:10.745Z,7.80
2022-10-04T19:13:56.257Z,10.68
2022-10-04T19:16:43.245Z,8.25
2022-10-04T19:19:39.314Z,8.02
2022-10-04T19:22:27.809Z,7.95
2022-10-04T19:25:36.489Z,5.50
2022-10-04T19:28:19.740Z,6.45
2022-10-04T19:31:03.641Z,6.50
2022-10-04T19:33:52.149Z,4.93
2022-10-04T19:36:49.604Z,5.95
2022-10-04T19:39:37.621Z,4.22
2022-10-04T19:42:14.383Z,4.57
2022-10-04T19:44:58.283Z,4.45
2022-10-04T19:47:41.594Z,4.97
2022-10-04T19:50:33.381Z,4.53
2022-10-04T19:53:16.126Z,6.28
2022-10-04T19:55:55.887Z,4.85
2022-10-04T19:58:36.642Z,6.28
2022-10-04T20:01:12.495Z,4.78
2022-10-04T20:03:45.832Z,5.05
2022-10-04T20:06:26.154Z,5.50
2022-10-04T20:09:20.139Z,6.05
2022-10-04T20:11:54.130Z,6.28
2022-10-04T20:15:14.882Z,7.22
2022-10-04T20:17:49.399Z,4.30
2022-10-04T20:20:55.590Z,3.65
2022-10-04T20:23:56.690Z,5.00
2022-10-04T20:27:06.191Z,5.90
2022-10-04T20:30:01.841Z,7.53
2022-10-04T20:32:57.197Z,4.97
2022-10-04T20:36:14.267Z,3.58
2022-10-04T20:38:53.958Z,5.75
2022-10-04T20:42:22.661Z,3.53
2022-10-04T20:44:59.005Z,5.32
2022-10-04T20:47:46.384Z,5.05
2022-10-04T20:50:29.921Z,6.15
2022-10-04T20:53:06.855Z,5.15
2022-10-04T20:55:41.482Z,4.43
2022-10-04T20:58:28.804Z,6.55
2022-10-04T21:01:14.011Z,3.92
2022-10-04T21:03:46.995Z,5.80
2022-10-04T21:06:19.811Z,4.65
2022-10-04T21:08:54.393Z,4.00
2022-10-04T21:11:44.789Z,5.50
2022-10-04T21:14:24.087Z,6.75
2022-10-04T21:17:02.351Z,3.88
2022-10-04T21:19:53.755Z,4.53
2022-10-04T21:22:40.013Z,3.55
2022-10-04T21:25:39.785Z,3.53
2022-10-04T21:28:36.336Z,7.13
2022-10-04T21:31:09.258Z,4.40
2022-10-04T21:33:42.765Z,4.10
2022-10-04T21:36:16.082Z,3.45
2022-10-04T21:38:48.974Z,4.03
2022-10-04T21:41:22.004Z,4.45
2022-10-04T21:43:56.260Z,5.05
2022-10-04T21:46:29.212Z,4.75
2022-10-04T21:49:02.149Z,4.65
2022-10-04T21:51:36.332Z,4.60
2022-10-04T21:54:09.166Z,6.15
2022-10-04T21:56:42.019Z,4.53
2022-10-04T21:59:16.233Z,4.97
2022-10-04T22:01:49.277Z,4.60
2022-10-04T22:04:22.088Z,4.72
2022-10-04T22:06:54.881Z,5.15
2022-10-04T22:09:28.074Z,3.90
2022-10-04T22:12:01.163Z,5.93
2022-10-04T22:14:35.575Z,3.83
2022-10-04T22:17:08.629Z,6.03
2022-10-04T22:19:41.678Z,4.15
2022-10-04T22:22:16.155Z,7.57
2022-10-04T22:24:49.409Z,6.00
2022-10-04T22:27:22.889Z,5.95
2022-10-04T22:29:58.241Z,4.18
2022-10-04T22:32:31.499Z,3.35
2022-10-04T22:35:13.842Z,3.78
2022-10-04T22:37:47.032Z,3.40
2022-10-04T22:40:21.897Z,5.75
2022-10-04T22:42:56.892Z,3.30
2022-10-04T22:45:33.480Z,3.83
2022-10-04T22:48:13.197Z,3.10
2022-10-04T22:50:46.148Z,3.88
2022-10-04T22:53:22.576Z,3.92
2022-10-04T22:55:56.277Z,4.53
2022-10-04T22:58:29.146Z,3.30
2022-10-04T23:01:03.504Z,3.60
2022-10-04T23:03:38.244Z,5.28
2022-10-04T23:06:14.249Z,4.13
2022-10-04T23:08:47.151Z,2.83
2022-10-04T23:11:19.959Z,3.90
2022-10-04T23:13:52.940Z,4.55
2022-10-04T23:16:27.200Z,2.50
2022-10-04T23:19:03.128Z,6.53
2022-10-04T23:21:38.886Z,2.50
2022-10-04T23:24:17.583Z,2.40
2022-10-04T23:26:55.770Z,4.88
2022-10-04T23:29:32.971Z,2.67
2022-10-04T23:32:11.932Z,6.38
2022-10-04T23:34:47.442Z,2.55
2022-10-04T23:37:24.171Z,3.47
2022-10-04T23:39:57.057Z,4.45
2022-10-04T23:42:32.396Z,3.60
2022-10-04T23:45:17.344Z,6.72
2022-10-04T23:47:54.367Z,4.72
2022-10-04T23:50:30.677Z,2.33
2022-10-04T23:53:06.555Z,4.00
2022-10-04T23:55:41.710Z,3.15
2022-10-04T23:58:17.085Z,4.85
